createdAt,value
2018-07-10T00:59:07.350Z,4.90
2018-07-10T01:01:36.328Z,4.70
2018-07-10T01:04:05.445Z,6.80
2018-07-10T01:06:34.105Z,5.43
2018-07-10T01:09:02.625Z,6.83
2018-07-10T01:11:31.452Z,4.87
2018-07-10T01:14:00.974Z,4.70
2018-07-10T01:16:37.627Z,4.90
2018-07-10T01:19:14.728Z,5.30
2018-07-10T01:21:45.017Z,6.43
2018-07-10T01:24:15.822Z,5.40
2018-07-10T01:26:44.870Z,4.63
2018-07-10T01:29:20.935Z,6.27
2018-07-10T01:31:54.962Z,4.97
2018-07-10T01:34:24.845Z,4.80
2018-07-10T01:36:54.834Z,6.80
2018-07-10T01:39:23.623Z,5.53
2018-07-10T01:41:52.167Z,5.37
2018-07-10T01:44:21.994Z,5.33
2018-07-10T01:46:50.529Z,5.50
2018-07-10T01:49:19.326Z,7.30
2018-07-10T01:51:49.267Z,4.53
2018-07-10T01:54:17.707Z,7.03
2018-07-10T01:56:46.510Z,5.40
2018-07-10T01:59:16.421Z,5.30
2018-07-10T02:01:45.127Z,5.60
2018-07-10T02:04:13.770Z,5.50
2018-07-10T02:06:43.254Z,5.80
2018-07-10T02:09:11.674Z,6.10
2018-07-10T02:11:40.181Z,6.37
2018-07-10T02:14:09.051Z,6.50
2018-07-10T02:16:37.453Z,6.07
2018-07-10T02:19:06.675Z,5.87
2018-07-10T02:21:35.482Z,7.37
2018-07-10T02:24:04.373Z,5.70
2018-07-10T02:26:33.200Z,5.90
2018-07-10T02:29:01.743Z,5.77
2018-07-10T02:31:30.746Z,5.93
2018-07-10T02:34:00.809Z,7.63
2018-07-10T02:36:30.434Z,5.60
2018-07-10T02:39:00.562Z,5.87
2018-07-10T02:41:29.142Z,5.13
2018-07-10T02:43:58.801Z,5.73
2018-07-10T02:46:28.447Z,6.83
2018-07-10T02:49:04.785Z,5.53
2018-07-10T02:51:35.623Z,7.53
2018-07-10T02:54:04.282Z,5.47
2018-07-10T02:56:33.456Z,7.07
2018-07-10T02:59:03.605Z,5.40
2018-07-10T03:01:32.144Z,5.23
2018-07-10T03:04:01.228Z,5.43
2018-07-10T03:06:31.588Z,5.70
2018-07-10T03:09:00.103Z,5.43
2018-07-10T03:11:29.615Z,6.90
2018-07-10T03:13:58.231Z,4.90
2018-07-10T03:16:27.460Z,5.47
2018-07-10T03:18:55.999Z,5.20
2018-07-10T03:21:25.827Z,4.77
2018-07-10T03:23:54.525Z,5.30
2018-07-10T03:26:23.201Z,4.83
2018-07-10T03:28:52.812Z,6.67
2018-07-10T03:31:21.393Z,5.37
2018-07-10T03:33:50.452Z,5.40
2018-07-10T03:36:19.400Z,5.30
2018-07-10T03:38:48.056Z,7.00
2018-07-10T03:41:17.811Z,4.70
2018-07-10T03:43:46.293Z,7.47
2018-07-10T03:46:15.357Z,5.67
2018-07-10T03:48:45.075Z,5.10
2018-07-10T03:51:14.798Z,5.37
2018-07-10T03:53:43.301Z,5.43
2018-07-10T03:56:12.811Z,5.70
2018-07-10T03:58:42.160Z,5.57
2018-07-10T04:01:10.788Z,5.60
2018-07-10T04:03:39.939Z,6.00
2018-07-10T04:06:09.266Z,7.43
2018-07-10T04:08:38.602Z,5.80
2018-07-10T04:11:08.053Z,6.20
2018-07-10T04:13:37.635Z,5.63
2018-07-10T04:16:06.444Z,5.83
2018-07-10T04:18:36.343Z,6.80
2018-07-10T04:21:18.551Z,6.00
2018-07-10T04:23:49.126Z,5.97
2018-07-10T04:26:22.040Z,6.23
2018-07-10T04:29:07.262Z,4.80
2018-07-10T04:32:10.809Z,4.93
2018-07-10T04:34:39.697Z,4.90
2018-07-10T04:37:11.628Z,4.87
2018-07-10T04:39:42.255Z,4.63
2018-07-10T04:42:30.737Z,5.50
2018-07-10T04:45:06.273Z,4.60
2018-07-10T04:47:40.572Z,4.47
2018-07-10T04:50:14.469Z,5.80
2018-07-10T04:52:48.155Z,4.70
2018-07-10T04:55:16.860Z,4.27
2018-07-10T04:57:57.464Z,4.47
2018-07-10T05:00:27.676Z,4.23
2018-07-10T05:02:57.537Z,4.17
2018-07-10T05:05:28.195Z,4.20
2018-07-10T05:07:56.725Z,4.10
2018-07-10T05:10:25.362Z,4.33
2018-07-10T05:12:54.378Z,4.13
2018-07-10T05:15:23.590Z,4.30
2018-07-10T05:17:53.956Z,4.43
2018-07-10T05:20:23.638Z,4.40
2018-07-10T05:22:52.434Z,4.47
2018-07-10T05:25:21.008Z,4.33
2018-07-10T05:27:50.845Z,4.53
2018-07-10T05:30:20.221Z,3.70
2018-07-10T05:32:48.789Z,3.98
2018-07-10T05:35:18.489Z,4.37
2018-07-10T05:37:49.412Z,4.07
2018-07-10T05:40:25.883Z,4.17
2018-07-10T05:42:54.376Z,3.77
2018-07-10T05:45:24.405Z,4.10
2018-07-10T05:47:59.609Z,4.07
2018-07-10T05:50:32.035Z,4.27
2018-07-10T05:53:00.932Z,4.17
2018-07-10T05:55:30.805Z,5.53
2018-07-10T05:58:04.141Z,4.50
2018-07-10T06:00:32.888Z,4.37
2018-07-10T06:03:01.672Z,3.97
2018-07-10T06:05:30.630Z,4.27
2018-07-10T06:07:59.223Z,4.47
2018-07-10T06:10:27.871Z,4.40
2018-07-10T06:12:59.385Z,4.60
2018-07-10T06:15:28.570Z,4.60
2018-07-10T06:17:57.910Z,4.70
2018-07-10T06:20:26.881Z,4.80
2018-07-10T06:22:56.889Z,5.07
2018-07-10T06:25:26.063Z,4.97
2018-07-10T06:28:01.897Z,5.27
2018-07-10T06:30:30.967Z,4.67
2018-07-10T06:33:04.483Z,4.80
2018-07-10T06:35:40.093Z,4.80
2018-07-10T06:38:16.092Z,5.50
2018-07-10T06:40:48.790Z,9.73
2018-07-10T06:43:31.801Z,9.57
2018-07-10T06:46:00.604Z,10.20
2018-07-10T06:48:36.451Z,10.73
2018-07-10T06:51:12.364Z,14.90
2018-07-10T06:53:40.864Z,10.00
2018-07-10T06:56:10.100Z,8.43
2018-07-10T06:58:38.664Z,5.60
2018-07-10T07:01:07.233Z,5.07
2018-07-10T07:03:38.563Z,8.00
2018-07-10T07:06:07.414Z,5.20
2018-07-10T07:08:35.978Z,4.97
2018-07-10T07:11:05.092Z,4.40
2018-07-10T07:13:33.597Z,4.30
2018-07-10T07:16:02.512Z,4.30
2018-07-10T07:18:31.477Z,4.70
2018-07-10T07:21:00.035Z,4.57
2018-07-10T07:23:30.030Z,4.70
2018-07-10T07:25:58.621Z,5.00
2018-07-10T07:28:27.424Z,4.77
2018-07-10T07:30:56.223Z,6.20
2018-07-10T07:33:25.028Z,4.73
2018-07-10T07:35:53.601Z,4.40
2018-07-10T07:38:22.832Z,4.80
2018-07-10T07:40:52.906Z,4.50
2018-07-10T07:43:21.706Z,4.37
2018-07-10T07:45:51.076Z,4.33
2018-07-10T07:48:20.026Z,4.07
2018-07-10T07:50:49.057Z,4.20
2018-07-10T07:53:17.817Z,4.03
2018-07-10T07:55:46.486Z,4.00
2018-07-10T07:58:15.935Z,3.90
2018-07-10T08:00:44.404Z,4.00
2018-07-10T08:03:12.819Z,3.90
2018-07-10T08:05:41.771Z,3.63
2018-07-10T08:08:10.507Z,3.80
2018-07-10T08:10:39.503Z,3.60
2018-07-10T08:13:08.182Z,3.60
2018-07-10T08:15:36.648Z,3.40
2018-07-10T08:18:04.811Z,4.10
2018-07-10T08:20:33.818Z,3.70
2018-07-10T08:23:03.165Z,3.93
2018-07-10T09:21:15.753Z,3.70
2018-07-10T09:23:44.226Z,3.30
2018-07-10T09:26:13.601Z,3.50
2018-07-10T09:28:42.681Z,2.90
2018-07-10T09:31:11.448Z,3.17
2018-07-10T09:33:40.725Z,2.97
2018-07-10T09:36:09.630Z,2.90
2018-07-10T09:38:38.574Z,3.13
2018-07-10T09:41:09.181Z,2.67
2018-07-10T09:43:38.435Z,2.40
2018-07-10T09:46:07.471Z,3.03
2018-07-10T09:48:35.930Z,2.87
2018-07-10T09:51:05.053Z,2.80
2018-07-10T09:53:33.608Z,2.37
2018-07-10T09:56:02.195Z,2.40
2018-07-10T09:58:31.777Z,2.50
2018-07-10T10:01:09.220Z,2.63
2018-07-10T10:03:38.658Z,2.77
2018-07-10T10:06:07.198Z,2.90
2018-07-10T10:08:37.238Z,2.60
2018-07-10T10:11:05.753Z,2.43
2018-07-10T10:13:34.264Z,2.90
2018-07-10T10:16:02.866Z,2.57
2018-07-10T10:18:31.780Z,2.43
2018-07-10T10:21:00.287Z,2.90
2018-07-10T10:23:29.949Z,2.70
2018-07-10T10:25:58.490Z,2.90
2018-07-10T10:28:26.970Z,2.43
2018-07-10T10:30:55.718Z,3.07
2018-07-10T10:33:24.692Z,2.80
2018-07-10T10:35:54.126Z,2.93
2018-07-10T10:38:23.542Z,3.00
2018-07-10T10:40:52.217Z,2.80
2018-07-10T10:43:21.290Z,2.90
2018-07-10T10:45:50.255Z,2.67
2018-07-10T10:48:20.200Z,2.37
2018-07-10T10:50:50.732Z,2.60
2018-07-10T10:53:21.782Z,2.83
2018-07-10T10:55:50.549Z,3.20
2018-07-10T10:58:20.334Z,3.00
2018-07-10T11:00:49.226Z,2.60
2018-07-10T11:03:17.940Z,2.93
2018-07-10T11:05:46.514Z,3.00
2018-07-10T11:08:16.076Z,3.10
2018-07-10T11:10:46.133Z,2.80
2018-07-10T11:13:16.472Z,3.00
2018-07-10T11:15:47.783Z,2.43
2018-07-10T11:18:27.477Z,3.53
2018-07-10T11:21:01.456Z,2.97
2018-07-10T11:23:51.865Z,3.00
2018-07-10T11:26:55.509Z,2.93
2018-07-10T11:29:24.614Z,3.23
2018-07-10T11:31:53.743Z,3.47
2018-07-10T11:34:22.828Z,2.73
2018-07-10T11:36:52.167Z,2.90
2018-07-10T11:39:21.054Z,3.27
2018-07-10T11:41:52.380Z,3.40
2018-07-10T11:44:21.794Z,3.60
2018-07-10T11:46:50.311Z,3.60
2018-07-10T11:49:19.987Z,3.80
2018-07-10T11:51:49.350Z,3.70
2018-07-10T11:54:18.167Z,3.23
2018-07-10T11:56:47.759Z,3.13
2018-07-10T11:59:16.704Z,4.17
2018-07-10T12:01:45.924Z,3.40
2018-07-10T12:04:14.742Z,3.50
2018-07-10T12:06:48.095Z,3.43
2018-07-10T12:09:18.753Z,3.10
2018-07-10T12:11:47.705Z,2.60
2018-07-10T12:14:16.470Z,3.10
2018-07-10T12:16:45.753Z,2.90
2018-07-10T12:19:15.912Z,2.80
2018-07-10T12:21:46.411Z,2.63
2018-07-10T12:24:15.633Z,3.13
2018-07-10T12:26:44.467Z,3.10
2018-07-10T12:29:13.274Z,2.80
2018-07-10T12:31:42.101Z,3.23
2018-07-10T12:34:10.788Z,3.03
2018-07-10T12:36:39.610Z,2.90
2018-07-10T12:39:08.072Z,3.37
2018-07-10T12:41:36.659Z,3.23
2018-07-10T12:44:05.201Z,2.83
2018-07-10T12:46:35.523Z,2.80
2018-07-10T12:49:04.784Z,3.60
2018-07-10T12:51:34.479Z,2.97
2018-07-10T12:54:03.593Z,2.90
2018-07-10T12:56:32.561Z,2.90
2018-07-10T12:59:01.273Z,3.37
2018-07-10T13:01:30.193Z,2.87
2018-07-10T13:03:59.925Z,3.40
2018-07-10T13:06:29.840Z,3.00
2018-07-10T13:08:58.338Z,3.07
2018-07-10T13:11:27.188Z,3.10
2018-07-10T13:13:55.880Z,3.10
2018-07-10T13:16:25.209Z,2.80
2018-07-10T13:18:55.622Z,2.33
2018-07-10T13:21:24.948Z,2.60
2018-07-10T13:23:53.736Z,2.40
2018-07-10T13:26:22.869Z,2.70
2018-07-10T13:28:52.276Z,2.63
2018-07-10T13:31:21.513Z,2.87
2018-07-10T13:33:50.270Z,2.50
2018-07-10T13:36:20.790Z,2.70
2018-07-10T13:38:57.321Z,2.83
2018-07-10T13:41:28.445Z,2.77
2018-07-10T13:43:59.117Z,2.70
2018-07-10T13:46:29.758Z,2.97
2018-07-10T13:48:59.306Z,3.00
2018-07-10T13:51:29.187Z,3.50
2018-07-10T13:53:57.910Z,3.50
2018-07-10T13:56:26.750Z,3.43
2018-07-10T13:58:56.146Z,4.50
2018-07-10T14:01:24.978Z,4.13
2018-07-10T14:03:53.725Z,4.10
2018-07-10T14:06:22.941Z,4.50
2018-07-10T14:08:51.481Z,4.27
2018-07-10T14:11:20.769Z,4.80
2018-07-10T14:13:49.021Z,4.40
2018-07-10T14:16:17.989Z,4.40
2018-07-10T14:18:50.119Z,4.23
2018-07-10T14:21:18.825Z,4.00
2018-07-10T14:23:47.287Z,4.73
2018-07-10T14:26:16.414Z,4.40
2018-07-10T14:28:45.069Z,3.30
2018-07-10T14:31:14.000Z,3.30
2018-07-10T14:33:43.302Z,3.53
2018-07-10T14:36:12.148Z,3.10
2018-07-10T14:38:42.515Z,3.67
2018-07-10T14:41:11.572Z,3.70
2018-07-10T14:43:42.348Z,3.30
2018-07-10T14:46:16.211Z,3.60
2018-07-10T14:48:50.225Z,3.50
2018-07-10T14:51:22.230Z,3.80
2018-07-10T14:53:51.169Z,4.00
2018-07-10T15:02:59.544Z,4.00
2018-07-10T15:11:08.193Z,4.30
2018-07-10T15:13:49.054Z,4.20
2018-07-10T15:16:17.964Z,4.33
2018-07-10T15:18:49.785Z,4.90
2018-07-10T15:21:19.237Z,5.20
2018-07-10T15:23:47.938Z,6.30
2018-07-10T15:26:16.981Z,8.70
2018-07-10T15:28:46.884Z,7.90
2018-07-10T15:31:15.391Z,7.73
2018-07-10T15:33:43.734Z,8.40
2018-07-10T15:36:12.919Z,9.60
2018-07-10T15:38:42.170Z,12.23
2018-07-10T15:41:11.294Z,9.57
2018-07-10T15:43:39.884Z,9.60
2018-07-10T15:46:08.562Z,10.07
2018-07-10T15:48:37.780Z,10.10
2018-07-10T15:51:08.163Z,9.40
2018-07-10T15:53:37.886Z,9.90
2018-07-10T15:56:07.996Z,11.10
2018-07-10T15:58:38.514Z,10.03
2018-07-10T16:01:07.458Z,9.77
2018-07-10T16:03:37.945Z,10.67
2018-07-10T16:06:08.137Z,11.63
2018-07-10T16:08:38.793Z,10.37
2018-07-10T16:11:07.909Z,10.77
2018-07-10T16:13:43.117Z,10.97
2018-07-10T16:16:15.978Z,10.53
2018-07-10T16:19:50.760Z,10.77
2018-07-10T16:22:26.016Z,9.97
2018-07-10T16:24:59.308Z,10.90
2018-07-10T16:27:34.416Z,10.50
2018-07-10T16:30:04.507Z,10.53
2018-07-10T16:32:35.986Z,9.50
2018-07-10T16:35:04.644Z,9.37
2018-07-10T16:37:34.263Z,10.40
2018-07-10T16:40:04.598Z,8.63
2018-07-10T16:42:43.256Z,9.30
2018-07-10T16:45:19.732Z,9.70
2018-07-10T16:48:00.161Z,9.57
2018-07-10T16:50:35.177Z,9.67
2018-07-10T16:53:05.136Z,9.30
2018-07-10T16:55:34.092Z,8.73
2018-07-10T16:58:03.138Z,10.00
2018-07-10T17:00:31.668Z,9.73
2018-07-10T17:03:01.198Z,10.53
2018-07-10T17:05:29.876Z,10.20
2018-07-10T17:07:58.487Z,10.30
2018-07-10T17:10:27.461Z,10.77
2018-07-10T17:12:56.474Z,10.77
2018-07-10T17:15:28.165Z,11.13
2018-07-10T17:17:57.303Z,11.37
2018-07-10T17:20:27.065Z,11.30
2018-07-10T17:22:56.039Z,11.87
2018-07-10T17:25:25.509Z,11.53
2018-07-10T17:27:55.306Z,10.77
2018-07-10T17:30:24.123Z,16.27
2018-07-10T17:32:52.672Z,13.57
2018-07-10T17:35:21.572Z,12.70
2018-07-10T17:37:50.882Z,12.63
2018-07-10T17:40:21.308Z,13.50
2018-07-10T17:42:50.371Z,16.13
2018-07-10T17:45:38.220Z,13.77
2018-07-10T17:48:07.142Z,15.47
2018-07-10T17:50:35.862Z,13.93
2018-07-10T17:53:04.814Z,16.73
2018-07-10T17:55:33.964Z,12.17
2018-07-10T17:58:04.334Z,16.20
2018-07-10T18:00:33.257Z,13.90
2018-07-10T18:03:02.189Z,13.37
2018-07-10T18:05:30.693Z,13.07
2018-07-10T18:07:59.736Z,15.80
2018-07-10T18:10:28.275Z,13.90
2018-07-10T18:12:57.384Z,11.60
2018-07-10T18:15:27.492Z,15.27
2018-07-10T18:17:57.890Z,11.40
2018-07-10T18:20:26.442Z,12.10
2018-07-10T18:22:55.637Z,13.27
2018-07-10T18:25:25.044Z,13.10
2018-07-10T18:27:53.789Z,16.30
2018-07-10T18:30:22.530Z,14.33
2018-07-10T18:32:51.374Z,13.70
2018-07-10T18:35:21.092Z,15.03
2018-07-10T18:37:50.672Z,13.67
2018-07-10T18:40:20.659Z,14.30
2018-07-10T18:42:51.268Z,14.53
2018-07-10T18:45:26.798Z,14.53
2018-07-10T18:47:55.952Z,14.93
2018-07-10T18:50:24.841Z,17.80
2018-07-10T18:52:54.696Z,14.07
2018-07-10T18:55:24.376Z,13.70
2018-07-10T18:58:16.010Z,18.20
2018-07-10T19:03:01.825Z,15.17
2018-07-10T19:05:31.067Z,17.03
2018-07-10T19:08:00.866Z,14.50
2018-07-10T19:10:30.362Z,13.83
2018-07-10T19:12:59.438Z,13.80
2018-07-10T19:15:30.069Z,14.03
2018-07-10T19:17:59.716Z,13.90
2018-07-10T19:20:30.828Z,14.40
2018-07-10T19:23:15.287Z,13.67
2018-07-10T19:25:44.476Z,13.43
2018-07-10T19:28:13.389Z,15.60
2018-07-10T19:30:50.010Z,12.30
2018-07-10T19:33:18.712Z,11.50
2018-07-10T19:35:47.674Z,11.97
2018-07-10T19:38:16.500Z,12.03
2018-07-10T19:40:45.557Z,12.30
2018-07-10T19:43:15.863Z,12.43
2018-07-10T19:45:44.681Z,17.90
2018-07-10T19:48:14.923Z,15.27
2018-07-10T19:50:44.416Z,15.87
2018-07-10T19:53:13.011Z,17.27
2018-07-10T19:55:46.897Z,17.40
2018-07-10T19:58:19.382Z,18.10
2018-07-10T20:00:54.683Z,18.30
2018-07-10T20:03:36.051Z,18.27
2018-07-10T20:06:09.067Z,18.27
2018-07-10T20:08:40.478Z,22.60
2018-07-10T20:11:10.942Z,18.10
2018-07-10T20:13:46.567Z,21.73
2018-07-10T20:16:23.638Z,17.70
2018-07-10T20:19:09.265Z,18.50
2018-07-10T20:21:49.892Z,18.97
2018-07-10T20:24:20.691Z,18.87
2018-07-10T20:27:00.318Z,20.03
2018-07-10T20:29:53.981Z,19.30
2018-07-10T20:32:29.079Z,19.53
2018-07-10T20:35:34.441Z,19.23
2018-07-10T20:38:04.858Z,18.03
2018-07-10T20:40:37.964Z,22.57
2018-07-10T20:43:13.211Z,19.33
2018-07-10T20:45:54.837Z,18.83
2018-07-10T20:49:01.470Z,18.30
2018-07-10T20:51:44.773Z,19.30
2018-07-10T20:54:18.939Z,17.33
2018-07-10T20:57:25.344Z,18.23
2018-07-10T21:00:05.655Z,18.83
2018-07-10T21:03:53.223Z,18.30
2018-07-10T21:06:49.404Z,18.03
2018-07-10T21:09:21.138Z,19.37
2018-07-10T21:12:00.122Z,18.87
2018-07-10T21:14:39.420Z,18.77
2018-07-10T21:17:14.408Z,22.63
2018-07-10T21:21:58.169Z,19.63
2018-07-10T21:24:36.316Z,19.67
2018-07-10T21:27:07.717Z,20.23
2018-07-10T21:30:47.921Z,20.03
2018-07-10T21:35:28.345Z,21.63
2018-07-10T21:38:04.657Z,24.57
2018-07-10T21:40:41.833Z,20.90
2018-07-10T21:43:21.509Z,25.00
2018-07-10T21:46:59.021Z,20.47
2018-07-10T21:49:39.321Z,19.43
2018-07-10T21:52:08.492Z,20.70
2018-07-10T21:54:37.185Z,20.17
